createdAt,value
2023-03-29T00:02:33.706Z,100723.58
2023-03-29T00:07:36.825Z,100727.49
2023-03-29T00:12:41.889Z,100727.33
2023-03-29T00:17:44.772Z,100727.33
2023-03-29T00:22:47.637Z,100729.55
2023-03-29T00:27:51.103Z,100728.53
2023-03-29T00:32:53.851Z,100728.01
2023-03-29T00:37:57.836Z,100732.77
2023-03-29T00:43:01.052Z,100726.46
2023-03-29T00:48:11.231Z,100730.90
2023-03-29T00:53:23.068Z,100726.97
2023-03-29T00:58:40.581Z,100726.98
2023-03-29T01:03:58.357Z,100728.01
2023-03-29T01:09:09.426Z,100729.03
2023-03-29T01:14:20.722Z,100728.52
2023-03-29T01:19:27.480Z,100732.10
2023-03-29T01:24:42.107Z,100722.71
2023-03-29T01:30:04.276Z,100713.84
2023-03-29T01:35:35.862Z,100724.07
2023-03-29T01:40:38.895Z,100721.51
2023-03-29T01:45:48.195Z,100716.38
2023-03-29T01:51:18.785Z,100714.35
2023-03-29T01:56:26.469Z,100715.89
2023-03-29T02:01:34.723Z,100714.70
2023-03-29T02:06:39.747Z,100722.03
2023-03-29T02:11:44.950Z,100724.06
2023-03-29T02:16:49.741Z,100726.27
2023-03-29T02:22:04.086Z,100723.05
2023-03-29T02:27:07.589Z,100728.31
2023-03-29T02:32:19.808Z,100729.85
2023-03-29T02:37:26.721Z,100724.73
2023-03-29T02:42:30.497Z,100728.99
2023-03-29T02:47:43.969Z,100726.09
2023-03-29T02:52:54.173Z,100722.01
2023-03-29T02:57:57.992Z,100718.76
2023-03-29T03:03:02.037Z,100722.52
2023-03-29T03:08:07.341Z,100728.32
2023-03-29T03:13:10.293Z,100726.45
2023-03-29T03:18:13.129Z,100715.38
2023-03-29T03:23:15.900Z,100716.91
2023-03-29T03:28:19.247Z,100718.78
2023-03-29T03:33:22.012Z,100730.52
2023-03-29T03:38:24.718Z,100731.36
2023-03-29T03:43:28.267Z,100734.77
2023-03-29T03:48:31.775Z,100740.02
2023-03-29T03:53:34.493Z,100736.95
2023-03-29T03:58:38.104Z,100737.77
2023-03-29T04:03:41.185Z,100731.65
2023-03-29T04:08:44.263Z,100736.77
2023-03-29T04:13:47.016Z,100733.17
2023-03-29T04:18:50.063Z,100730.95
2023-03-29T04:23:52.946Z,100733.67
2023-03-29T04:28:56.035Z,100734.88
2023-03-29T04:34:00.396Z,100733.85
2023-03-29T04:39:04.363Z,100735.55
2023-03-29T04:44:07.127Z,100742.88
2023-03-29T04:49:10.153Z,100740.33
2023-03-29T04:54:12.892Z,100737.77
2023-03-29T04:59:15.601Z,100742.20
2023-03-29T05:04:18.483Z,100744.60
2023-03-29T05:09:22.316Z,100750.40
2023-03-29T05:14:26.092Z,100751.61
2023-03-29T05:19:28.797Z,100748.21
2023-03-29T05:24:31.850Z,100743.63
2023-03-29T05:29:34.583Z,100740.58
2023-03-29T05:34:40.434Z,100748.09
2023-03-29T05:39:44.353Z,100748.62
2023-03-29T05:44:49.517Z,100747.27
2023-03-29T05:49:52.863Z,100742.84
2023-03-29T05:54:56.867Z,100740.46
2023-03-29T05:59:59.595Z,100748.47
2023-03-29T06:05:03.119Z,100740.29
2023-03-29T06:10:09.717Z,100748.97
2023-03-29T06:15:14.261Z,100749.80
2023-03-29T06:20:21.004Z,100751.83
2023-03-29T06:25:25.056Z,100754.18
2023-03-29T06:30:27.962Z,100750.73
2023-03-29T06:35:46.037Z,100753.39
2023-03-29T06:40:49.485Z,100752.95
2023-03-29T06:45:55.085Z,100751.23
2023-03-29T06:50:57.965Z,100750.38
2023-03-29T06:56:05.375Z,100760.15
2023-03-29T07:01:08.136Z,100760.17
2023-03-29T07:06:12.305Z,100761.02
2023-03-29T07:11:16.380Z,100754.59
2023-03-29T07:16:19.676Z,100752.63
2023-03-29T07:21:24.837Z,100754.50
2023-03-29T07:26:30.158Z,100748.83
2023-03-29T07:31:35.842Z,100747.84
2023-03-29T07:36:44.744Z,100745.06
2023-03-29T07:41:50.082Z,100745.63
2023-03-29T07:46:52.873Z,100744.97
2023-03-29T07:51:58.722Z,100743.23
2023-03-29T07:57:02.642Z,100747.72
2023-03-29T08:02:07.526Z,100737.77
2023-03-29T08:07:10.458Z,100737.17
2023-03-29T08:12:25.093Z,100738.30
2023-03-29T08:17:28.293Z,100739.42
2023-03-29T08:22:32.841Z,100733.54
2023-03-29T08:27:35.789Z,100738.06
2023-03-29T08:32:39.497Z,100739.77
2023-03-29T08:37:44.725Z,100738.05
2023-03-29T08:42:59.413Z,100730.67
2023-03-29T08:48:17.841Z,100733.90
2023-03-29T08:53:29.828Z,100726.17
2023-03-29T08:58:34.321Z,100721.58
2023-03-29T09:04:05.904Z,100720.34
2023-03-29T09:09:18.029Z,100719.73
2023-03-29T09:14:36.656Z,100716.55
2023-03-29T09:20:16.254Z,100710.60
2023-03-29T09:25:47.237Z,100703.70
2023-03-29T09:31:12.487Z,100713.75
2023-03-29T09:36:25.845Z,100708.12
2023-03-29T09:41:57.490Z,100708.25
2023-03-29T09:47:29.613Z,100697.70
2023-03-29T09:57:50.853Z,100696.71
2023-03-29T10:02:57.852Z,100699.92
2023-03-29T10:08:19.669Z,100694.69
2023-03-29T10:13:33.044Z,100686.41
2023-03-29T10:18:43.876Z,100685.64
2023-03-29T10:23:48.547Z,100683.20
2023-03-29T10:28:54.976Z,100677.42
2023-03-29T10:34:02.999Z,100672.19
2023-03-29T10:39:30.945Z,100672.39
2023-03-29T10:44:36.606Z,100664.83
2023-03-29T10:49:41.754Z,100661.24
2023-03-29T10:54:44.849Z,100650.28
2023-03-29T10:59:57.898Z,100645.58
2023-03-29T11:05:17.781Z,100646.27
2023-03-29T11:10:35.583Z,100636.83
2023-03-29T11:15:56.625Z,100628.69
2023-03-29T11:21:36.948Z,100625.38
2023-03-29T11:27:12.291Z,100620.86
2023-03-29T11:32:19.189Z,100623.50
2023-03-29T11:37:32.962Z,100615.14
2023-03-29T11:42:43.645Z,100603.95
2023-03-29T11:47:48.359Z,100604.19
2023-03-29T11:53:17.927Z,100598.02
2023-03-29T11:58:36.644Z,100590.32
2023-03-29T12:03:55.848Z,100578.73
2023-03-29T12:09:14.272Z,100579.34
2023-03-29T12:14:28.291Z,100568.95
2023-03-29T12:19:33.888Z,100566.55
2023-03-29T12:24:40.894Z,100564.41
2023-03-29T12:29:49.683Z,100562.15
2023-03-29T12:35:02.739Z,100550.55
2023-03-29T12:40:14.075Z,100546.27
2023-03-29T12:45:52.111Z,100539.15
2023-03-29T12:51:02.320Z,100533.72
2023-03-29T12:56:08.876Z,100525.66
2023-03-29T13:01:31.451Z,100521.58
2023-03-29T13:06:54.221Z,100516.20
2023-03-29T13:12:11.180Z,100518.50
2023-03-29T13:17:35.001Z,100512.92
2023-03-29T13:23:03.243Z,100509.79
2023-03-29T13:28:34.428Z,100503.55
2023-03-29T13:33:53.756Z,100507.14
2023-03-29T13:39:07.129Z,100494.91
2023-03-29T13:44:22.260Z,100486.74
2023-03-29T13:49:27.931Z,100489.86
2023-03-29T13:54:33.248Z,100495.39
2023-03-29T13:59:52.310Z,100486.30
2023-03-29T14:04:56.251Z,100484.15
2023-03-29T14:10:01.288Z,100487.64
2023-03-29T14:15:07.552Z,100485.89
2023-03-29T14:20:15.634Z,100480.75
2023-03-29T14:25:22.776Z,100477.93
2023-03-29T14:30:29.057Z,100476.77
2023-03-29T14:35:33.285Z,100471.20
2023-03-29T14:40:36.557Z,100465.75
2023-03-29T14:45:39.586Z,100460.98
2023-03-29T14:50:44.246Z,100448.48
2023-03-29T14:55:51.792Z,100439.90
2023-03-29T15:00:55.334Z,100437.60
2023-03-29T15:06:02.837Z,100435.63
2023-03-29T15:11:33.047Z,100435.32
2023-03-29T15:16:42.165Z,100437.36
2023-03-29T15:21:47.958Z,100424.52
2023-03-29T15:27:03.737Z,100425.34
2023-03-29T15:32:07.050Z,100422.97
2023-03-29T15:37:12.684Z,100417.70
2023-03-29T15:42:15.514Z,100413.70
2023-03-29T15:47:18.224Z,100413.75
2023-03-29T15:52:21.009Z,100408.89
2023-03-29T15:57:23.865Z,100406.83
2023-03-29T16:02:28.471Z,100401.86
2023-03-29T16:07:31.354Z,100407.17
2023-03-29T16:12:36.087Z,100403.05
2023-03-29T16:17:38.956Z,100395.16
2023-03-29T16:22:42.687Z,100384.06
2023-03-29T16:27:46.534Z,100387.02
2023-03-29T16:32:49.286Z,100382.86
2023-03-29T16:37:52.555Z,100377.01
2023-03-29T16:42:55.377Z,100370.27
2023-03-29T16:47:58.362Z,100363.55
2023-03-29T16:53:01.153Z,100365.71
2023-03-29T16:58:05.005Z,100362.23
2023-03-29T17:03:08.227Z,100365.23
2023-03-29T17:08:11.075Z,100364.41
2023-03-29T17:13:13.881Z,100357.98
2023-03-29T17:18:16.590Z,100360.31
2023-03-29T17:23:19.438Z,100360.71
2023-03-29T17:28:23.226Z,100361.89
2023-03-29T17:33:26.398Z,100362.56
2023-03-29T17:38:30.746Z,100360.50
2023-03-29T17:43:33.487Z,100355.23
2023-03-29T17:48:36.255Z,100359.45
2023-03-29T17:53:39.044Z,100357.20
2023-03-29T17:58:41.840Z,100359.75
2023-03-29T18:03:45.144Z,100360.21
2023-03-29T18:08:48.238Z,100359.29
2023-03-29T18:13:53.015Z,100360.95
2023-03-29T18:18:56.949Z,100364.61
2023-03-29T18:23:59.773Z,100361.10
2023-03-29T18:29:02.749Z,100365.17
2023-03-29T18:34:05.886Z,100358.34
2023-03-29T18:39:09.196Z,100352.96
2023-03-29T18:44:14.171Z,100348.77
2023-03-29T18:49:16.884Z,100354.93
2023-03-29T18:54:19.871Z,100354.59
2023-03-29T18:59:22.636Z,100358.83
2023-03-29T19:04:27.225Z,100358.43
2023-03-29T19:09:31.042Z,100356.59
2023-03-29T19:14:33.809Z,100347.85
2023-03-29T19:19:37.974Z,100343.66
2023-03-29T19:24:40.701Z,100334.41
2023-03-29T19:29:43.424Z,100326.51
2023-03-29T19:34:47.649Z,100325.80
2023-03-29T19:39:50.864Z,100324.50
2023-03-29T19:44:53.700Z,100317.87
2023-03-29T19:49:58.548Z,100312.86
2023-03-29T19:55:01.428Z,100312.77
2023-03-29T20:00:08.137Z,100312.44
2023-03-29T20:05:12.657Z,100312.27
2023-03-29T20:10:15.587Z,100305.48
2023-03-29T20:15:19.170Z,100300.07
2023-03-29T20:20:24.297Z,100302.17
2023-03-29T20:25:27.905Z,100293.05
2023-03-29T20:30:30.786Z,100288.53
2023-03-29T20:35:33.647Z,100287.94
2023-03-29T20:40:37.211Z,100281.32
2023-03-29T20:45:52.822Z,100281.65
2023-03-29T20:50:57.890Z,100277.35
2023-03-29T20:56:00.716Z,100273.73
2023-03-29T21:01:03.809Z,100263.45
2023-03-29T21:06:06.930Z,100250.11
2023-03-29T21:11:13.185Z,100241.36
2023-03-29T21:16:16.071Z,100232.95
2023-03-29T21:21:19.095Z,100221.08
2023-03-29T21:26:23.948Z,100213.58
2023-03-29T21:31:26.705Z,100214.14
2023-03-29T21:36:30.560Z,100203.19
2023-03-29T21:41:33.310Z,100201.16
2023-03-29T21:46:36.033Z,100192.26
2023-03-29T21:51:38.818Z,100193.59
2023-03-29T21:56:41.627Z,100192.83
2023-03-29T22:01:44.391Z,100196.75
2023-03-29T22:06:47.114Z,100198.94
2023-03-29T22:11:50.199Z,100193.35
2023-03-29T22:16:53.052Z,100184.88
2023-03-29T22:22:01.462Z,100174.66
2023-03-29T22:27:04.405Z,100178.59
2023-03-29T22:32:07.214Z,100181.43
2023-03-29T22:37:10.196Z,100172.77
2023-03-29T22:42:12.903Z,100164.84
2023-03-29T22:47:16.181Z,100161.96
2023-03-29T22:52:18.882Z,100157.77
2023-03-29T22:57:21.723Z,100152.55
2023-03-29T23:02:24.469Z,100150.79
2023-03-29T23:07:28.326Z,100141.04
2023-03-29T23:12:32.017Z,100138.83
2023-03-29T23:17:35.107Z,100140.63
2023-03-29T23:22:39.843Z,100140.35
2023-03-29T23:27:43.331Z,100134.02
2023-03-29T23:32:46.983Z,100128.39
2023-03-29T23:37:49.751Z,100122.77
2023-03-29T23:42:59.739Z,100116.56
2023-03-29T23:48:02.807Z,100116.98
2023-03-29T23:53:06.582Z,100110.51
2023-03-29T23:58:09.332Z,100110.10
